createdAt,value
2016-12-21T00:00:03.840Z,93.37
2016-12-21T00:00:57.127Z,93.23
2016-12-21T00:01:46.578Z,93.66
2016-12-21T00:02:38.216Z,93.18
2016-12-21T00:03:28.094Z,93.28
2016-12-21T00:04:18.810Z,93.85
2016-12-21T00:05:11.761Z,93.85
2016-12-21T00:06:01.848Z,93.85
2016-12-21T00:06:54.130Z,93.37
2016-12-21T00:07:46.366Z,93.28
2016-12-21T00:08:36.676Z,93.47
2016-12-21T00:09:25.147Z,93.37
2016-12-21T00:10:14.884Z,93.37
2016-12-21T00:11:07.298Z,93.56
2016-12-21T00:11:57.357Z,93.37
2016-12-21T00:12:47.278Z,93.18
2016-12-21T00:13:36.814Z,93.47
2016-12-21T00:14:27.231Z,93.56
2016-12-21T00:15:16.942Z,93.66
2016-12-21T00:16:08.558Z,93.66
2016-12-21T00:16:58.280Z,93.66
2016-12-21T00:17:49.240Z,93.85
2016-12-21T00:18:38.687Z,93.37
2016-12-21T00:19:28.617Z,93.37
2016-12-21T00:20:18.762Z,93.47
2016-12-21T00:21:07.146Z,94.04
2016-12-21T00:21:58.605Z,93.47
2016-12-21T00:22:46.941Z,93.47
2016-12-21T00:23:37.874Z,93.47
2016-12-21T00:24:29.274Z,93.66
2016-12-21T00:25:18.890Z,93.18
2016-12-21T00:26:10.439Z,93.09
2016-12-21T00:27:01.869Z,93.28
2016-12-21T00:27:51.488Z,93.37
2016-12-21T00:28:41.791Z,93.18
2016-12-21T00:29:31.809Z,92.8
2016-12-21T00:30:23.068Z,92.71
2016-12-21T00:31:10.477Z,93.18
2016-12-21T00:32:00.542Z,93.18
2016-12-21T00:32:52.439Z,92.9
2016-12-21T00:33:43.776Z,92.9
2016-12-21T00:34:36.381Z,93.09
2016-12-21T00:35:25.879Z,92.71
2016-12-21T00:36:16.832Z,92.8
2016-12-21T00:37:05.816Z,92.61
2016-12-21T00:37:57.789Z,92.43
2016-12-21T00:38:46.896Z,92.8
2016-12-21T00:39:37.427Z,93.18
2016-12-21T00:40:25.808Z,92.99
2016-12-21T00:41:16.353Z,92.71
2016-12-21T00:42:06.642Z,93.09
2016-12-21T00:42:58.030Z,92.8
2016-12-21T00:43:48.967Z,92.33
2016-12-21T00:44:40.941Z,92.43
2016-12-21T00:45:31.221Z,92.71
2016-12-21T00:46:20.984Z,92.71
2016-12-21T00:47:10.222Z,92.8
2016-12-21T00:48:00.440Z,93.18
2016-12-21T00:48:49.876Z,93.66
2016-12-21T00:49:38.395Z,92.99
2016-12-21T00:50:32.689Z,93.47
2016-12-21T00:51:20.135Z,93.28
2016-12-21T00:52:13.434Z,93.18
2016-12-21T00:53:04.347Z,92.71
2016-12-21T00:53:53.706Z,92.99
2016-12-21T00:54:44.857Z,92.9
2016-12-21T00:55:33.923Z,92.9
2016-12-21T00:56:23.124Z,92.71
2016-12-21T00:58:14.821Z,92.9
2016-12-21T00:59:03.754Z,92.9
2016-12-21T00:59:54.214Z,92.9
2016-12-21T01:00:44.495Z,93.37
2016-12-21T01:01:33.992Z,92.9
2016-12-21T01:02:23.714Z,92.9
2016-12-21T01:03:14.946Z,92.9
2016-12-21T01:04:02.806Z,92.9
2016-12-21T01:04:52.904Z,92.8
2016-12-21T01:05:41.908Z,92.52
2016-12-21T01:06:30.901Z,92.33
2016-12-21T01:07:22.574Z,92.71
2016-12-21T01:08:15.033Z,92.71
2016-12-21T01:09:03.750Z,92.71
2016-12-21T01:09:53.555Z,92.99
2016-12-21T01:10:42.474Z,93.28
2016-12-21T01:11:32.536Z,92.99
2016-12-21T01:12:25.066Z,93.18
2016-12-21T01:13:13.188Z,92.9
2016-12-21T01:14:03.013Z,92.99
2016-12-21T01:14:52.615Z,92.8
2016-12-21T01:15:41.024Z,92.9
2016-12-21T01:16:31.659Z,93.09
2016-12-21T01:17:21.937Z,93.18
2016-12-21T01:18:12.392Z,93.47
2016-12-21T01:19:01.679Z,93.47
2016-12-21T01:19:50.649Z,93.18
2016-12-21T01:20:40.532Z,92.71
2016-12-21T01:21:30.033Z,92.43
2016-12-21T01:22:19.919Z,92.05
2016-12-21T01:23:08.412Z,91.96
2016-12-21T01:23:58.553Z,92.14
2016-12-21T01:24:46.413Z,92.24
2016-12-21T01:25:36.472Z,92.05
2016-12-21T01:26:27.575Z,92.24
2016-12-21T01:27:16.630Z,92.71
2016-12-21T01:28:05.965Z,92.71
2016-12-21T01:28:56.603Z,92.71
2016-12-21T01:29:48.044Z,93.18
2016-12-21T01:30:37.935Z,93.18
2016-12-21T01:31:26.882Z,92.8
2016-12-21T01:32:16.535Z,93.09
2016-12-21T01:33:05.643Z,92.9
2016-12-21T01:33:56.485Z,92.9
2016-12-21T01:34:47.589Z,92.99
2016-12-21T01:35:38.081Z,92.9
2016-12-21T01:36:28.469Z,92.99
2016-12-21T01:37:22.842Z,92.61
2016-12-21T01:38:11.645Z,92.52
2016-12-21T01:39:02.048Z,92.99
2016-12-21T01:39:52.703Z,92.71
2016-12-21T01:40:41.061Z,92.9
2016-12-21T01:41:29.774Z,92.8
2016-12-21T01:42:19.910Z,93.09
2016-12-21T01:43:08.114Z,92.99
2016-12-21T01:43:59.814Z,93.09
2016-12-21T01:44:48.626Z,93.56
2016-12-21T01:45:37.973Z,93.28
2016-12-21T01:46:27.208Z,93.28
2016-12-21T01:47:15.827Z,93.28
2016-12-21T01:48:05.054Z,93.18
2016-12-21T01:48:54.376Z,92.8
2016-12-21T01:49:45.161Z,92.99
2016-12-21T01:50:34.440Z,93.28
2016-12-21T01:51:23.278Z,92.99
2016-12-21T01:52:12.171Z,92.9
2016-12-21T01:53:02.104Z,92.99
2016-12-21T01:53:50.541Z,93.09
2016-12-21T01:54:41.225Z,92.9
2016-12-21T01:55:29.030Z,92.9
2016-12-21T01:56:18.652Z,93.09
2016-12-21T01:57:09.568Z,93.09
2016-12-21T01:57:57.134Z,92.43
2016-12-21T01:58:47.628Z,92.61
2016-12-21T01:59:35.911Z,92.43
2016-12-21T02:00:24.901Z,92.05
2016-12-21T02:01:13.576Z,92.43
2016-12-21T02:02:02.519Z,92.14
2016-12-21T02:02:51.400Z,92.05
2016-12-21T02:03:40.018Z,92.52
2016-12-21T02:04:29.554Z,92.24
2016-12-21T02:05:18.952Z,92.52
2016-12-21T02:06:07.918Z,92.8
2016-12-21T02:06:58.565Z,92.33
2016-12-21T02:07:47.650Z,92.05
2016-12-21T02:08:36.523Z,92.9
2016-12-21T02:09:25.473Z,92.71
2016-12-21T02:10:14.281Z,92.71
2016-12-21T02:11:03.141Z,92.8
2016-12-21T02:11:53.696Z,93.09
2016-12-21T02:12:42.862Z,93.18
2016-12-21T02:13:34.002Z,93.18
2016-12-21T02:14:23.120Z,92.9
2016-12-21T02:15:12.662Z,93.18
2016-12-21T02:16:03.369Z,93.18
2016-12-21T02:16:51.919Z,92.99
2016-12-21T02:17:40.592Z,92.99
2016-12-21T02:18:30.104Z,92.9
2016-12-21T02:19:19.404Z,93.37
2016-12-21T02:20:08.418Z,93.28
2016-12-21T02:20:57.540Z,93.28
2016-12-21T02:21:46.077Z,92.99
2016-12-21T02:22:35.440Z,93.09
2016-12-21T02:23:24.443Z,92.99
2016-12-21T02:24:13.459Z,93.28
2016-12-21T02:25:03.525Z,93.37
2016-12-21T02:25:51.994Z,93.28
2016-12-21T02:26:42.359Z,93.28
2016-12-21T02:27:31.094Z,93.09
2016-12-21T02:28:20.287Z,93.47
2016-12-21T02:29:09.009Z,93.28
2016-12-21T02:29:57.989Z,93.09
2016-12-21T02:30:47.461Z,93.18
2016-12-21T02:31:36.404Z,92.99
2016-12-21T02:32:24.949Z,93.37
2016-12-21T02:33:13.822Z,93.18
2016-12-21T02:34:03.457Z,93.18
2016-12-21T02:34:52.535Z,92.99
2016-12-21T02:35:43.499Z,92.99
2016-12-21T02:36:34.015Z,93.56
2016-12-21T02:37:23.518Z,93.37
2016-12-21T02:38:12.453Z,93.28
2016-12-21T02:39:02.636Z,93.66
2016-12-21T02:39:51.878Z,93.75
2016-12-21T02:40:41.412Z,93.75
2016-12-21T02:41:31.852Z,94.04
2016-12-21T02:42:21.311Z,93.66
2016-12-21T02:43:10.000Z,93.75
2016-12-21T02:43:58.862Z,93.66
2016-12-21T02:44:48.657Z,93.47
2016-12-21T02:45:37.106Z,93.47
2016-12-21T02:46:26.664Z,93.85
2016-12-21T02:47:15.993Z,93.66
2016-12-21T02:48:04.292Z,93.47
2016-12-21T02:48:53.040Z,93.75
2016-12-21T02:49:42.005Z,93.56
2016-12-21T02:50:30.335Z,93.37
2016-12-21T02:51:19.571Z,94.04
2016-12-21T02:52:09.289Z,93.75
2016-12-21T02:52:58.064Z,93.85
2016-12-21T02:53:47.341Z,93.85
2016-12-21T02:54:36.064Z,93.94
2016-12-21T02:55:24.887Z,93.85
2016-12-21T02:56:13.519Z,93.85
2016-12-21T02:57:03.040Z,93.66
2016-12-21T02:57:52.298Z,93.85
2016-12-21T02:58:40.537Z,93.85
2016-12-21T02:59:29.981Z,93.56
2016-12-21T03:00:19.123Z,93.66
2016-12-21T03:01:08.408Z,93.75
2016-12-21T03:01:59.164Z,93.56
2016-12-21T03:02:48.879Z,93.66
2016-12-21T03:03:38.371Z,94.13
2016-12-21T03:04:28.289Z,94.23
2016-12-21T03:05:17.418Z,94.51
2016-12-21T03:06:06.925Z,94.6
2016-12-21T03:06:55.442Z,94.04
2016-12-21T03:07:44.669Z,93.66
2016-12-21T03:08:34.403Z,93.66
2016-12-21T03:09:23.294Z,93.94
2016-12-21T03:10:15.781Z,93.94
2016-12-21T03:11:04.510Z,94.7
2016-12-21T03:11:54.852Z,94.13
2016-12-21T03:12:43.925Z,94.23
2016-12-21T03:13:33.524Z,94.7
2016-12-21T03:14:23.666Z,94.13
2016-12-21T03:15:13.624Z,94.7
2016-12-21T03:16:02.856Z,93.94
2016-12-21T03:16:52.081Z,94.13
2016-12-21T03:17:41.122Z,94.32
2016-12-21T03:18:30.787Z,94.32
2016-12-21T03:19:19.977Z,94.32
2016-12-21T03:20:08.441Z,94.23
2016-12-21T03:20:58.657Z,94.13
2016-12-21T03:21:49.932Z,93.94
2016-12-21T03:22:42.753Z,94.13
2016-12-21T03:23:31.025Z,94.04
2016-12-21T03:24:22.510Z,94.13
2016-12-21T03:25:12.960Z,94.23
2016-12-21T03:26:02.927Z,94.23
2016-12-21T03:26:54.939Z,94.32
2016-12-21T03:27:46.552Z,94.32
2016-12-21T03:28:36.492Z,94.23
2016-12-21T03:29:27.503Z,94.42
2016-12-21T03:30:19.768Z,94.7
2016-12-21T03:31:09.554Z,94.7
2016-12-21T03:31:58.595Z,94.42
2016-12-21T03:32:52.147Z,94.13
2016-12-21T03:33:41.811Z,94.7
2016-12-21T03:34:29.935Z,94.89
2016-12-21T03:35:22.563Z,94.89
2016-12-21T03:36:10.520Z,94.32
2016-12-21T03:37:00.007Z,94.7
2016-12-21T03:37:49.209Z,94.7
2016-12-21T03:38:37.242Z,94.89
2016-12-21T03:39:27.004Z,94.7
2016-12-21T03:40:15.677Z,94.79
2016-12-21T03:41:05.002Z,94.79
2016-12-21T03:41:54.150Z,94.79
2016-12-21T03:42:44.419Z,94.79
2016-12-21T03:43:35.074Z,94.7
2016-12-21T03:44:23.789Z,94.6
2016-12-21T03:45:11.991Z,94.7
2016-12-21T03:46:00.835Z,94.89
2016-12-21T03:46:50.379Z,94.89
2016-12-21T03:47:39.824Z,95.17
2016-12-21T03:48:28.628Z,94.6
2016-12-21T03:49:17.853Z,94.98
2016-12-21T03:50:07.229Z,94.79
2016-12-21T03:50:56.480Z,94.6
2016-12-21T03:51:45.601Z,94.6
2016-12-21T03:52:34.541Z,95.17
2016-12-21T03:53:23.794Z,95.17
2016-12-21T03:54:12.373Z,95.36
2016-12-21T03:55:02.867Z,94.79
2016-12-21T03:55:52.090Z,94.7
2016-12-21T03:56:40.838Z,95.26
2016-12-21T03:57:29.717Z,95.26
2016-12-21T03:58:18.971Z,94.79
2016-12-21T03:59:07.589Z,95.17
2016-12-21T03:59:57.264Z,94.98
2016-12-21T04:00:45.400Z,94.98
2016-12-21T04:01:34.482Z,94.7
2016-12-21T04:02:25.598Z,95.26
2016-12-21T04:03:14.984Z,95.17
2016-12-21T04:04:04.141Z,94.6
2016-12-21T04:04:53.138Z,94.7
2016-12-21T04:05:42.823Z,94.89
2016-12-21T04:06:33.109Z,94.79
2016-12-21T04:07:23.520Z,94.7
2016-12-21T04:08:15.479Z,94.7
2016-12-21T04:09:04.370Z,94.04
2016-12-21T04:09:52.726Z,94.7
2016-12-21T04:10:43.455Z,94.04
2016-12-21T04:11:31.546Z,94.42
2016-12-21T04:12:20.846Z,94.23
2016-12-21T04:13:09.469Z,94.04
2016-12-21T04:13:58.564Z,94.13
2016-12-21T04:14:48.039Z,94.23
2016-12-21T04:15:39.293Z,94.51
2016-12-21T04:16:29.751Z,94.32
2016-12-21T04:17:19.553Z,94.13
2016-12-21T04:18:09.239Z,94.23
2016-12-21T04:18:58.608Z,94.6
2016-12-21T04:19:47.946Z,94.13
2016-12-21T04:20:37.068Z,94.42
2016-12-21T04:21:26.965Z,94.32
2016-12-21T04:22:15.956Z,94.7
2016-12-21T04:23:04.232Z,94.79
2016-12-21T04:23:53.490Z,94.98
2016-12-21T04:24:42.002Z,94.42
2016-12-21T04:25:30.904Z,94.51
2016-12-21T04:26:20.075Z,94.32
2016-12-21T04:27:08.108Z,94.23
2016-12-21T04:27:57.496Z,94.42
2016-12-21T04:28:45.878Z,94.42
2016-12-21T04:29:35.739Z,94.6
2016-12-21T04:30:24.382Z,94.6
2016-12-21T04:31:13.743Z,94.42
2016-12-21T04:32:01.384Z,94.04
2016-12-21T04:32:51.691Z,94.13
2016-12-21T04:33:39.405Z,94.04
2016-12-21T04:34:27.838Z,94.13
2016-12-21T04:35:17.861Z,94.42
2016-12-21T04:36:05.941Z,94.23
2016-12-21T04:36:54.561Z,94.13
2016-12-21T04:37:43.477Z,94.42
2016-12-21T04:38:32.456Z,94.32
2016-12-21T04:39:21.751Z,94.32
2016-12-21T04:40:10.988Z,94.32
2016-12-21T04:40:59.847Z,93.94
2016-12-21T04:41:49.427Z,94.13
2016-12-21T04:42:40.506Z,94.04
2016-12-21T04:43:29.310Z,94.51
2016-12-21T04:44:17.844Z,94.32
2016-12-21T04:45:06.424Z,94.32
2016-12-21T04:45:56.024Z,94.23
2016-12-21T04:46:44.057Z,94.51
2016-12-21T04:47:33.076Z,94.51
2016-12-21T04:48:21.995Z,94.51
2016-12-21T04:49:10.593Z,94.13
2016-12-21T04:49:59.232Z,94.04
2016-12-21T04:50:48.094Z,94.13
2016-12-21T04:51:36.786Z,94.32
2016-12-21T04:52:25.237Z,94.23
2016-12-21T04:53:14.126Z,94.13
2016-12-21T04:54:03.044Z,94.23
2016-12-21T04:54:51.852Z,94.32
2016-12-21T04:55:40.616Z,94.51
2016-12-21T04:56:29.244Z,94.13
2016-12-21T04:57:17.866Z,94.13
2016-12-21T04:58:06.604Z,94.13
2016-12-21T04:58:55.935Z,94.04
2016-12-21T14:11:22.878Z,93.46
2016-12-21T14:12:05.422Z,93.37
2016-12-21T14:12:45.885Z,93.65
2016-12-21T14:13:26.359Z,93.8
2016-12-21T14:14:07.188Z,93.65
2016-12-21T14:14:47.703Z,94.18
2016-12-21T14:15:28.340Z,93.99
2016-12-21T14:16:09.450Z,93.84
2016-12-21T14:16:50.149Z,93.84
2016-12-21T14:17:30.640Z,94.42
2016-12-21T14:18:11.119Z,94.51
2016-12-21T14:18:52.335Z,94.42
2016-12-21T14:19:32.903Z,94.6
2016-12-21T14:20:13.428Z,94.7
2016-12-21T14:20:53.883Z,94.6
2016-12-21T14:21:34.438Z,94.79
2016-12-21T14:22:14.983Z,94.89
2016-12-21T14:22:55.760Z,94.6
2016-12-21T14:23:36.267Z,94.32
2016-12-21T14:24:16.882Z,94.51
2016-12-21T14:24:57.404Z,94.56
2016-12-21T14:25:37.904Z,94.79
2016-12-21T14:26:18.422Z,94.7
2016-12-21T14:26:58.906Z,94.56
2016-12-21T14:27:39.382Z,95.22
2016-12-21T14:28:19.859Z,94.37
2016-12-21T14:29:00.362Z,94.37
2016-12-21T14:29:40.844Z,94.46
2016-12-21T14:30:21.425Z,94.65
2016-12-21T14:31:02.096Z,94.46
2016-12-21T14:31:42.661Z,94.27
2016-12-21T14:32:26.908Z,94.56
2016-12-21T14:33:09.503Z,94.27
2016-12-21T14:33:51.083Z,94.27
2016-12-21T14:34:31.570Z,94.27
2016-12-21T14:35:12.125Z,94.46
2016-12-21T14:35:52.625Z,94.65
2016-12-21T14:36:34.929Z,94.65
2016-12-21T14:37:17.570Z,94.74
2016-12-21T14:37:58.100Z,94.65
2016-12-21T14:38:38.580Z,94.56
2016-12-21T14:39:19.071Z,94.18
2016-12-21T14:39:59.710Z,94.37
2016-12-21T14:40:40.212Z,94.56
2016-12-21T14:41:20.696Z,94.37
2016-12-21T14:42:01.177Z,94.37
2016-12-21T14:42:41.717Z,94.46
2016-12-21T14:43:22.171Z,94.56
2016-12-21T14:44:02.686Z,94.46
2016-12-21T14:44:43.159Z,94.46
2016-12-21T14:45:23.630Z,94.18
2016-12-21T14:46:04.124Z,94.46
2016-12-21T14:46:44.751Z,94.65
2016-12-21T14:47:25.281Z,94.65
2016-12-21T14:48:05.980Z,94.74
2016-12-21T14:48:46.626Z,94.37
2016-12-21T14:49:27.180Z,94.46
2016-12-21T14:50:08.312Z,94.37
2016-12-21T14:50:48.831Z,94.74
2016-12-21T14:51:29.571Z,94.74
2016-12-21T14:52:09.939Z,94.46
2016-12-21T14:52:51.410Z,94.56
2016-12-21T14:53:31.902Z,94.46
2016-12-21T14:54:12.658Z,94.46
2016-12-21T14:54:53.154Z,94.37
2016-12-21T14:55:33.630Z,94.56
2016-12-21T14:56:14.096Z,94.65
2016-12-21T14:56:54.604Z,94.65
2016-12-21T14:57:35.057Z,94.65
2016-12-21T14:58:15.537Z,94.93
2016-12-21T14:58:55.995Z,94.84
2016-12-21T14:59:36.512Z,94.93
2016-12-21T15:00:16.952Z,95.03
2016-12-21T15:00:57.430Z,94.74
2016-12-21T15:01:37.938Z,94.84
2016-12-21T15:02:18.433Z,95.03
2016-12-21T15:02:58.926Z,95.6
2016-12-21T15:03:39.602Z,95.03
2016-12-21T15:04:20.006Z,95.5
2016-12-21T15:05:00.470Z,95.22
2016-12-21T15:05:40.972Z,95.03
2016-12-21T15:06:21.450Z,94.74
2016-12-21T15:07:01.944Z,95.22
2016-12-21T15:07:42.446Z,95.03
2016-12-21T15:08:22.933Z,95.31
2016-12-21T15:09:03.450Z,95.41
2016-12-21T15:09:44.251Z,94.84
2016-12-21T15:10:24.826Z,95.03
2016-12-21T15:11:05.318Z,95.41
2016-12-21T15:11:45.829Z,95.41
2016-12-21T15:12:26.300Z,95.22
2016-12-21T15:13:06.781Z,95.41
2016-12-21T15:13:47.251Z,95.79
2016-12-21T15:14:27.752Z,95.98
2016-12-21T15:15:08.255Z,95.79
2016-12-21T15:15:48.753Z,96.17
2016-12-21T15:16:29.231Z,96.17
2016-12-21T15:17:09.716Z,96.17
2016-12-21T15:17:50.195Z,96.26
2016-12-21T15:18:30.756Z,96.17
2016-12-21T15:19:11.214Z,96.73
2016-12-21T15:19:52.107Z,96.83
2016-12-21T15:20:32.538Z,96.73
2016-12-21T15:21:12.996Z,95.98
2016-12-21T15:21:53.494Z,96.26
2016-12-21T15:22:33.996Z,96.36
2016-12-21T15:23:16.719Z,96.36
2016-12-21T15:23:57.214Z,96.36
2016-12-21T15:24:37.686Z,96.45
2016-12-21T15:25:18.180Z,96.55
2016-12-21T15:25:58.671Z,96.45
2016-12-21T15:26:39.179Z,96.17
2016-12-21T15:27:19.683Z,96.17
2016-12-21T15:28:00.161Z,96.17
2016-12-21T15:28:40.632Z,96.83
2016-12-21T15:29:21.130Z,96.83
2016-12-21T15:30:01.638Z,97.02
2016-12-21T15:30:42.113Z,96.64
2016-12-21T15:31:23.271Z,97.21
2016-12-21T15:32:03.734Z,97.21
2016-12-21T15:32:44.200Z,97.31
2016-12-21T15:33:25.695Z,97.69
2016-12-21T15:34:06.189Z,97.5
2016-12-21T15:34:46.644Z,97.5
2016-12-21T15:35:27.138Z,97.5
2016-12-21T15:36:11.052Z,97.4
2016-12-21T15:38:01.467Z,97.4
2016-12-21T15:39:53.365Z,97.12
2016-12-21T15:40:33.760Z,96.73
2016-12-21T15:41:17.361Z,97.02
2016-12-21T15:41:57.068Z,97.21
2016-12-21T15:42:39.017Z,96.83
2016-12-21T15:43:21.651Z,97.21
2016-12-21T15:44:03.333Z,97.21
2016-12-21T15:44:50.561Z,97.69
2016-12-21T15:45:32.671Z,97.4
2016-12-21T15:46:17.393Z,97.59
2016-12-21T15:46:57.857Z,97.97
2016-12-21T15:47:40.476Z,97.97
2016-12-21T15:48:22.818Z,97.69
2016-12-21T15:49:03.332Z,97.5
2016-12-21T15:49:43.757Z,97.59
2016-12-21T15:50:24.278Z,97.88
2016-12-21T15:51:05.739Z,97.59
2016-12-21T15:51:46.208Z,97.78
2016-12-21T15:52:26.685Z,97.59
2016-12-21T15:53:07.202Z,97.69
2016-12-21T15:53:47.721Z,97.69
2016-12-21T15:54:28.190Z,97.59
2016-12-21T15:55:08.767Z,97.78
2016-12-21T15:55:49.293Z,97.4
2016-12-21T15:56:29.744Z,97.5
2016-12-21T15:57:10.278Z,97.69
2016-12-21T15:57:50.786Z,97.59
2016-12-21T15:58:31.359Z,97.59
2016-12-21T15:59:11.793Z,97.59
2016-12-21T15:59:52.469Z,97.69
2016-12-21T16:00:32.985Z,97.4
2016-12-21T16:01:13.497Z,97.12
2016-12-21T16:01:54.105Z,97.69
2016-12-21T16:02:35.146Z,97.21
2016-12-21T16:03:15.902Z,97.12
2016-12-21T16:03:56.362Z,97.69
2016-12-21T16:04:36.835Z,97.69
2016-12-21T16:05:17.309Z,97.5
2016-12-21T16:05:57.837Z,97.4
2016-12-21T16:06:38.499Z,97.4
2016-12-21T16:07:20.746Z,97.4
2016-12-21T16:08:01.185Z,97.59
2016-12-21T16:08:41.731Z,97.4
2016-12-21T16:09:22.184Z,97.4
2016-12-21T16:10:02.684Z,97.31
2016-12-21T16:10:43.168Z,97.4
2016-12-21T16:11:23.624Z,97.59
2016-12-21T16:12:05.636Z,97.4
2016-12-21T16:12:46.159Z,97.5
2016-12-21T16:13:26.749Z,97.4
2016-12-21T16:14:07.217Z,97.4
2016-12-21T16:14:47.628Z,97.78
2016-12-21T16:15:28.179Z,97.78
2016-12-21T16:16:08.681Z,97.59
2016-12-21T16:16:49.139Z,97.59
2016-12-21T16:17:29.644Z,97.5
2016-12-21T16:18:10.145Z,97.69
2016-12-21T16:20:25.744Z,97.78
2016-12-21T16:22:17.424Z,98.16
2016-12-21T16:22:57.941Z,98.44
2016-12-21T16:23:38.841Z,98.44
2016-12-21T16:24:19.525Z,98.92
2016-12-21T16:25:00.009Z,99.2
2016-12-21T16:25:40.610Z,99.11
2016-12-21T16:27:32.058Z,99.96
2016-12-21T16:28:15.633Z,99.49
2016-12-21T16:28:55.747Z,99.96
2016-12-21T16:29:36.265Z,99.96
2016-12-21T16:30:16.711Z,99.96
2016-12-21T16:30:57.200Z,99.96
2016-12-21T16:31:37.779Z,99.99
2016-12-21T16:32:18.374Z,99.99
2016-12-21T16:32:58.849Z,99.99
2016-12-21T16:33:39.240Z,99.96
2016-12-21T16:34:19.703Z,99.96
2016-12-21T16:35:00.191Z,99.96
2016-12-21T16:35:40.848Z,99.96
2016-12-21T16:36:21.330Z,99.87
2016-12-21T16:37:01.790Z,99.99
2016-12-21T16:37:42.284Z,99.99
2016-12-21T16:38:22.769Z,99.99
2016-12-21T16:39:03.238Z,99.99
2016-12-21T16:39:43.716Z,99.96
2016-12-21T16:40:24.241Z,99.99
2016-12-21T16:41:04.698Z,99.87
2016-12-21T16:41:45.202Z,99.77
2016-12-21T16:42:25.745Z,99.87
2016-12-21T16:43:06.208Z,99.99
2016-12-21T16:43:46.678Z,99.99
2016-12-21T16:44:27.184Z,99.96
2016-12-21T16:45:07.668Z,99.99
2016-12-21T16:45:48.172Z,99.96
2016-12-21T16:46:28.647Z,99.99
2016-12-21T16:47:09.057Z,99.99
2016-12-21T16:47:49.671Z,99.99
2016-12-21T16:48:30.292Z,99.87
2016-12-21T16:49:10.771Z,99.68
2016-12-21T16:49:51.241Z,99.68
2016-12-21T16:50:31.734Z,99.87
2016-12-21T16:51:12.235Z,99.77
2016-12-21T16:51:52.688Z,99.96
2016-12-21T16:52:33.194Z,99.99
2016-12-21T16:53:13.645Z,99.49
2016-12-21T16:53:54.119Z,99.39
2016-12-21T16:54:34.608Z,98.92
2016-12-21T16:55:15.153Z,99.3
2016-12-21T16:55:55.667Z,99.49
2016-12-21T16:56:36.211Z,99.39
2016-12-21T16:57:16.650Z,99.3
2016-12-21T16:57:57.136Z,99.3
2016-12-21T16:58:37.645Z,99.3
2016-12-21T16:59:18.169Z,99.49
2016-12-21T16:59:58.685Z,99.3
2016-12-21T17:00:39.201Z,99.3
2016-12-21T17:01:19.658Z,99.39
2016-12-21T17:02:00.160Z,99.11
2016-12-21T17:02:40.627Z,99.11
2016-12-21T17:03:21.075Z,99.39
2016-12-21T17:04:01.554Z,99.39
2016-12-21T17:04:42.066Z,99.49
2016-12-21T17:05:22.546Z,99.3
2016-12-21T17:06:03.068Z,99.3
2016-12-21T17:06:43.585Z,99.49
2016-12-21T17:07:24.053Z,99.39
2016-12-21T17:08:04.545Z,99.3
2016-12-21T17:08:45.005Z,99.3
2016-12-21T17:09:25.573Z,99.3
2016-12-21T17:10:06.103Z,99.39
2016-12-21T17:10:46.614Z,98.73
2016-12-21T17:11:27.079Z,99.01
2016-12-21T17:12:07.536Z,98.92
2016-12-21T17:12:48.003Z,98.82
2016-12-21T17:13:28.482Z,99.01
2016-12-21T17:14:08.956Z,99.01
2016-12-21T17:14:49.385Z,99.01
2016-12-21T17:15:29.927Z,98.92
2016-12-21T17:16:10.391Z,98.92
2016-12-21T17:16:50.888Z,98.73
2016-12-21T17:17:31.340Z,98.92
2016-12-21T17:18:11.826Z,98.82
2016-12-21T17:18:52.310Z,98.82
2016-12-21T17:19:32.899Z,99.11
2016-12-21T17:20:13.389Z,99.01
2016-12-21T17:20:53.828Z,98.92
2016-12-21T17:21:34.334Z,98.63
2016-12-21T17:22:14.808Z,99.2
2016-12-21T17:22:55.299Z,98.63
2016-12-21T17:23:35.847Z,98.63
2016-12-21T17:24:16.309Z,98.54
2016-12-21T17:24:56.769Z,98.54
2016-12-21T17:25:37.233Z,98.63
2016-12-21T17:26:17.717Z,98.44
2016-12-21T17:26:58.242Z,98.44
2016-12-21T17:27:38.666Z,98.92
2016-12-21T17:28:19.160Z,98.92
2016-12-21T17:28:59.638Z,98.54
2016-12-21T17:29:40.128Z,98.63
2016-12-21T17:30:20.642Z,98.82
2016-12-21T17:31:01.129Z,98.92
2016-12-21T17:31:41.671Z,98.35
2016-12-21T17:32:22.166Z,98.44
2016-12-21T17:33:02.679Z,98.35
2016-12-21T17:33:43.116Z,98.35
2016-12-21T17:34:23.581Z,98.35
2016-12-21T17:35:04.068Z,98.35
2016-12-21T17:35:44.617Z,98.44
2016-12-21T17:36:25.103Z,98.25
2016-12-21T17:37:05.727Z,98.16
2016-12-21T17:37:46.159Z,98.44
2016-12-21T17:38:26.667Z,98.44
2016-12-21T17:39:07.137Z,98.44
2016-12-21T17:39:47.635Z,98.63
2016-12-21T17:40:29.102Z,98.35
2016-12-21T17:41:09.588Z,97.69
2016-12-21T17:41:50.066Z,97.97
2016-12-21T17:42:30.545Z,97.88
2016-12-21T17:43:11.070Z,97.88
2016-12-21T17:43:51.559Z,98.07
2016-12-21T17:44:32.049Z,98.16
2016-12-21T17:45:12.681Z,98.16
2016-12-21T17:45:53.014Z,98.16
2016-12-21T17:46:33.497Z,98.16
2016-12-21T17:47:14.025Z,98.25
2016-12-21T17:47:54.489Z,98.16
2016-12-21T17:48:34.986Z,98.16
2016-12-21T17:49:15.518Z,97.69
2016-12-21T17:49:55.981Z,98.07
2016-12-21T17:50:36.431Z,97.97
2016-12-21T17:51:16.963Z,97.69
2016-12-21T17:51:57.446Z,98.16
2016-12-21T17:52:37.943Z,98.35
2016-12-21T17:53:18.418Z,98.25
2016-12-21T17:53:58.872Z,98.25
2016-12-21T17:54:39.360Z,98.25
2016-12-21T17:55:19.824Z,98.25
2016-12-21T17:56:00.287Z,98.35
2016-12-21T17:56:40.866Z,98.63
2016-12-21T17:57:21.356Z,98.54
2016-12-21T17:58:01.823Z,98.73
2016-12-21T17:58:42.329Z,98.73
2016-12-21T17:59:22.779Z,98.92
2016-12-21T18:00:03.230Z,98.63
2016-12-21T18:00:43.726Z,98.63
2016-12-21T18:01:24.205Z,98.63
2016-12-21T18:02:04.695Z,98.44
2016-12-21T18:02:45.221Z,98.54
2016-12-21T18:03:25.665Z,98.63
2016-12-21T18:04:06.173Z,98.54
2016-12-21T18:04:46.653Z,98.63
2016-12-21T18:05:27.110Z,98.63
2016-12-21T18:06:07.591Z,98.54
2016-12-21T18:06:48.057Z,98.63
2016-12-21T18:07:28.506Z,98.44
2016-12-21T18:08:08.981Z,98.44
2016-12-21T18:08:49.492Z,98.63
2016-12-21T18:09:29.949Z,98.35
2016-12-21T18:10:10.431Z,98.54
2016-12-21T18:10:50.949Z,98.54
2016-12-21T18:11:31.391Z,98.63
2016-12-21T18:12:11.919Z,98.44
2016-12-21T18:12:52.377Z,98.63
2016-12-21T18:13:32.937Z,98.63
2016-12-21T18:14:13.388Z,98.73
2016-12-21T18:14:53.937Z,98.35
2016-12-21T18:15:34.386Z,98.54
2016-12-21T18:16:14.884Z,98.92
2016-12-21T18:16:55.378Z,98.82
2016-12-21T18:17:35.903Z,99.11
2016-12-21T18:18:16.376Z,98.82
2016-12-21T18:18:56.890Z,98.54
2016-12-21T18:19:37.360Z,98.92
2016-12-21T18:20:17.803Z,99.11
2016-12-21T18:20:58.290Z,99.11
2016-12-21T18:21:38.774Z,98.54
2016-12-21T18:22:19.253Z,98.44
2016-12-21T18:22:59.736Z,98.54
2016-12-21T18:23:40.226Z,98.44
2016-12-21T18:24:20.832Z,98.44
2016-12-21T18:25:01.272Z,98.25
2016-12-21T18:25:41.764Z,98.35
2016-12-21T18:26:22.277Z,98.16
2016-12-21T18:28:20.630Z,98.59
2016-12-21T18:29:01.084Z,98.25
2016-12-21T18:29:41.647Z,98.49
2016-12-21T18:30:22.413Z,97.69
2016-12-21T18:31:02.895Z,98.07
2016-12-21T18:31:43.382Z,98.21
2016-12-21T18:32:23.878Z,98.07
2016-12-21T18:33:04.365Z,97.69
2016-12-21T18:33:44.824Z,97.92
2016-12-21T18:34:25.320Z,97.59
2016-12-21T18:35:05.822Z,97.45
2016-12-21T18:35:46.291Z,97.45
2016-12-21T18:36:26.754Z,97.26
2016-12-21T18:37:07.259Z,97.45
2016-12-21T18:37:47.756Z,97.45
2016-12-21T18:38:28.260Z,97.55
2016-12-21T18:39:08.726Z,97.74
2016-12-21T18:39:49.228Z,97.26
2016-12-21T18:40:29.731Z,97.02
2016-12-21T18:41:12.194Z,97.26
2016-12-21T18:41:52.683Z,96.69
2016-12-21T18:42:33.147Z,97.17
2016-12-21T18:43:13.638Z,97.17
2016-12-21T18:43:54.124Z,97.55
2016-12-21T18:44:34.576Z,96.69
2016-12-21T18:45:15.065Z,96.69
2016-12-21T18:45:55.519Z,96.78
2016-12-21T18:46:35.990Z,96.69
2016-12-21T18:47:16.463Z,96.69
2016-12-21T18:47:56.979Z,96.69
2016-12-21T18:48:37.435Z,96.69
2016-12-21T18:49:17.905Z,96.5
2016-12-21T18:49:58.391Z,96.78
2016-12-21T18:50:38.866Z,96.59
2016-12-21T18:51:19.390Z,96.88
2016-12-21T18:51:59.858Z,96.88
